createdAt,value
2023-04-12T00:03:31.510Z,215.70
2023-04-12T00:08:28.552Z,165.30
2023-04-12T00:13:28.891Z,148.80
2023-04-12T00:18:29.234Z,94.30
2023-04-12T00:23:27.480Z,118.60
2023-04-12T00:28:26.736Z,124.40
2023-04-12T00:33:26.032Z,83.60
2023-04-12T00:38:25.333Z,57.80
2023-04-12T00:43:24.609Z,56.00
2023-04-12T00:48:23.869Z,57.10
2023-04-12T00:53:23.144Z,55.90
2023-04-12T00:58:22.395Z,65.90
2023-04-12T01:03:21.760Z,62.20
2023-04-12T01:08:21.842Z,48.60
2023-04-12T01:13:21.122Z,57.80
2023-04-12T01:18:20.358Z,48.80
2023-04-12T01:23:18.600Z,45.30
2023-04-12T01:28:18.855Z,57.80
2023-04-12T01:33:18.097Z,49.10
2023-04-12T01:38:17.362Z,34.90
2023-04-12T01:43:15.621Z,44.50
2023-04-12T01:48:14.908Z,33.20
2023-04-12T01:53:15.215Z,25.30
2023-04-12T01:58:13.485Z,22.70
2023-04-12T02:03:12.974Z,23.70
2023-04-12T02:08:11.983Z,24.40
2023-04-12T02:13:11.312Z,33.70
2023-04-12T02:18:10.667Z,24.10
2023-04-12T02:23:09.782Z,26.30
2023-04-12T02:28:12.049Z,22.00
2023-04-12T02:33:08.320Z,14.70
2023-04-12T02:38:07.617Z,13.30
2023-04-12T02:43:06.921Z,11.60
2023-04-12T02:48:06.230Z,15.90
2023-04-12T02:53:05.465Z,15.70
2023-04-12T02:58:05.746Z,11.00
2023-04-12T03:03:05.177Z,10.80
2023-04-12T03:08:03.329Z,12.40
2023-04-12T03:13:02.587Z,16.70
2023-04-12T03:18:02.906Z,10.60
2023-04-12T03:23:01.018Z,14.20
2023-04-12T03:28:00.292Z,11.90
2023-04-12T03:33:01.633Z,7.80
2023-04-12T03:37:57.732Z,8.00
2023-04-12T03:42:59.941Z,8.30
2023-04-12T03:47:57.228Z,7.00
2023-04-12T03:52:57.120Z,6.90
2023-04-12T03:57:55.775Z,6.10
2023-04-12T04:02:56.125Z,4.80
2023-04-12T04:07:54.386Z,6.00
2023-04-12T04:12:54.680Z,4.30
2023-04-12T04:17:52.974Z,6.00
2023-04-12T04:22:54.260Z,5.70
2023-04-12T04:27:51.507Z,3.90
2023-04-12T04:32:50.914Z,4.20
2023-04-12T04:37:51.014Z,4.10
2023-04-12T04:42:50.217Z,3.70
2023-04-12T04:47:49.522Z,5.10
2023-04-12T04:52:48.738Z,4.70
2023-04-12T04:57:46.976Z,5.80
2023-04-12T05:02:45.295Z,4.80
2023-04-12T05:07:45.439Z,4.10
2023-04-12T05:12:44.712Z,4.20
2023-04-12T05:17:44.018Z,3.50
2023-04-12T05:22:43.286Z,4.40
2023-04-12T05:27:42.545Z,4.60
2023-04-12T05:32:42.862Z,3.10
2023-04-12T05:37:43.144Z,3.20
2023-04-12T05:42:40.392Z,3.80
2023-04-12T05:47:38.714Z,3.40
2023-04-12T05:52:38.945Z,2.40
2023-04-12T05:57:38.203Z,2.80
2023-04-12T06:02:37.638Z,2.40
2023-04-12T06:07:36.600Z,2.50
2023-04-12T06:12:35.865Z,2.30
2023-04-12T06:17:36.140Z,3.00
2023-04-12T06:22:35.371Z,3.20
2023-04-12T06:27:33.796Z,3.00
2023-04-12T06:32:32.837Z,3.10
2023-04-12T06:37:32.088Z,2.90
2023-04-12T06:42:31.348Z,2.30
2023-04-12T06:47:30.656Z,3.80
2023-04-12T06:52:30.900Z,2.10
2023-04-12T06:57:29.253Z,2.10
2023-04-12T07:02:28.399Z,2.60
2023-04-12T07:07:27.528Z,3.00
2023-04-12T07:12:28.848Z,2.40
2023-04-12T07:17:27.218Z,3.00
2023-04-12T07:22:26.352Z,2.70
2023-04-12T07:27:26.617Z,1.90
2023-04-12T07:32:23.967Z,2.10
2023-04-12T07:37:24.062Z,2.00
2023-04-12T07:42:23.319Z,2.10
2023-04-12T07:47:21.607Z,2.30
2023-04-12T07:52:22.894Z,3.40
2023-04-12T07:57:20.160Z,1.20
2023-04-12T08:02:19.510Z,1.30
2023-04-12T08:07:18.578Z,1.50
2023-04-12T08:12:17.838Z,1.40
2023-04-12T08:17:17.127Z,1.80
2023-04-12T08:22:16.417Z,1.70
2023-04-12T08:27:15.663Z,2.20
2023-04-12T08:32:14.927Z,2.30
2023-04-12T08:37:14.234Z,2.60
2023-04-12T08:42:13.371Z,7.20
2023-04-12T08:47:12.719Z,6.50
2023-04-12T08:52:10.843Z,5.30
2023-04-12T08:57:10.967Z,4.20
2023-04-12T09:02:10.387Z,4.10
2023-04-12T09:07:10.701Z,3.60
2023-04-12T09:12:08.768Z,4.80
2023-04-12T09:17:07.103Z,4.90
2023-04-12T09:22:07.214Z,4.40
2023-04-12T09:27:06.480Z,3.70
2023-04-12T09:32:06.844Z,5.10
2023-04-12T09:37:04.981Z,2.60
2023-04-12T09:42:04.098Z,3.40
2023-04-12T09:47:04.386Z,3.40
2023-04-12T09:52:02.722Z,2.70
2023-04-12T09:57:01.841Z,3.90
2023-04-12T10:02:01.110Z,3.00
2023-04-12T10:07:00.301Z,4.40
2023-04-12T10:12:00.593Z,3.50
2023-04-12T10:16:58.994Z,3.80
2023-04-12T10:21:59.100Z,3.60
2023-04-12T10:26:57.361Z,4.90
2023-04-12T10:31:55.801Z,3.10
2023-04-12T10:36:55.892Z,3.50
2023-04-12T10:41:55.201Z,3.00
2023-04-12T10:46:54.509Z,3.80
2023-04-12T10:51:53.808Z,2.50
2023-04-12T10:56:52.141Z,4.30
2023-04-12T11:01:53.406Z,3.20
2023-04-12T11:06:53.050Z,3.80
2023-04-12T11:11:50.752Z,2.60
2023-04-12T11:16:48.874Z,2.40
2023-04-12T11:21:48.024Z,2.40
2023-04-12T11:26:48.359Z,4.30
2023-04-12T11:31:49.501Z,2.50
2023-04-12T11:36:47.972Z,3.20
2023-04-12T11:41:46.064Z,2.50
2023-04-12T11:46:45.397Z,3.50
2023-04-12T11:51:45.798Z,1.80
2023-04-12T11:56:43.939Z,4.40
2023-04-12T12:01:43.235Z,3.80
2023-04-12T12:06:43.464Z,3.10
2023-04-12T12:11:40.705Z,2.50
2023-04-12T12:16:40.851Z,2.60
2023-04-12T12:21:40.132Z,2.30
2023-04-12T12:26:40.451Z,2.30
2023-04-12T12:31:37.857Z,2.80
2023-04-12T12:36:39.165Z,2.50
2023-04-12T12:41:38.344Z,2.60
2023-04-12T12:46:52.059Z,2.60
2023-04-12T12:51:37.947Z,2.40
2023-04-12T12:56:35.248Z,4.50
2023-04-12T13:01:33.568Z,2.00
2023-04-12T13:06:33.781Z,5.00
2023-04-12T13:11:33.071Z,2.30
2023-04-12T13:16:32.508Z,2.80
2023-04-12T13:21:31.592Z,2.50
2023-04-12T13:26:31.046Z,3.40
2023-04-12T13:31:30.222Z,3.20
2023-04-12T13:36:29.333Z,3.70
2023-04-12T13:41:29.638Z,2.00
2023-04-12T13:46:28.979Z,3.50
2023-04-12T13:51:27.055Z,3.80
2023-04-12T13:56:27.315Z,3.60
2023-04-12T14:01:25.896Z,2.60
2023-04-12T14:06:24.782Z,3.20
2023-04-12T14:11:24.088Z,2.20
2023-04-12T14:16:24.395Z,2.50
2023-04-12T14:21:22.629Z,2.60
2023-04-12T14:26:21.934Z,4.90
2023-04-12T14:31:22.251Z,3.40
2023-04-12T14:36:20.544Z,2.80
2023-04-12T14:41:20.816Z,4.10
2023-04-12T14:46:18.136Z,2.30
2023-04-12T14:51:18.419Z,2.40
2023-04-12T14:56:17.754Z,4.30
2023-04-12T15:01:17.085Z,3.10
2023-04-12T15:06:16.385Z,4.20
2023-04-12T15:11:17.692Z,3.80
2023-04-12T15:16:15.118Z,3.40
2023-04-12T15:21:14.301Z,3.00
2023-04-12T15:26:13.399Z,6.40
2023-04-12T15:31:12.775Z,3.90
2023-04-12T15:36:11.944Z,2.90
2023-04-12T15:41:11.299Z,4.30
2023-04-12T15:46:09.454Z,3.90
2023-04-12T15:51:08.776Z,3.50
2023-04-12T15:56:08.895Z,2.80
2023-04-12T16:01:08.245Z,3.20
2023-04-12T16:06:07.711Z,3.00
2023-04-12T16:11:06.809Z,3.40
2023-04-12T16:16:06.193Z,2.40
2023-04-12T16:21:06.350Z,3.20
2023-04-12T16:26:05.564Z,2.60
2023-04-12T16:31:03.708Z,2.20
2023-04-12T16:36:02.831Z,2.70
2023-04-12T16:41:02.217Z,3.00
2023-04-12T16:46:02.347Z,52.10
2023-04-12T16:51:00.682Z,27.90
2023-04-12T16:56:00.908Z,11.00
2023-04-12T17:00:59.048Z,7.80
2023-04-12T17:05:58.710Z,6.60
2023-04-12T17:10:57.126Z,6.70
2023-04-12T17:15:57.409Z,8.10
2023-04-12T17:20:56.658Z,8.30
2023-04-12T17:25:55.861Z,4.00
2023-04-12T17:30:55.070Z,6.00
2023-04-12T17:35:54.085Z,6.20
2023-04-12T17:40:53.409Z,5.10
2023-04-12T17:45:52.404Z,5.60
2023-04-12T17:50:52.120Z,5.80
2023-04-12T17:55:51.301Z,18.70
2023-04-12T18:00:50.495Z,10.50
2023-04-12T18:05:50.406Z,4.00
2023-04-12T18:10:47.989Z,5.40
2023-04-12T18:15:48.080Z,4.30
2023-04-12T18:20:47.491Z,3.50
2023-04-12T18:25:46.688Z,3.10
2023-04-12T18:30:46.637Z,4.10
2023-04-12T18:35:44.240Z,3.80
2023-04-12T18:40:43.439Z,1.30
2023-04-12T18:45:43.571Z,3.50
2023-04-12T18:50:47.819Z,3.30
2023-04-12T18:55:43.014Z,57.30
2023-04-12T19:00:42.006Z,42.70
2023-04-12T19:05:42.698Z,45.70
2023-04-12T19:10:40.884Z,39.00
2023-04-12T19:15:39.058Z,118.20
2023-04-12T19:20:37.815Z,112.10
2023-04-12T19:25:38.510Z,126.90
2023-04-12T19:30:37.681Z,77.90
2023-04-12T19:35:37.817Z,58.60
2023-04-12T19:40:34.891Z,46.40
2023-04-12T19:45:34.317Z,34.50
2023-04-12T19:50:34.566Z,50.00
2023-04-12T19:55:33.415Z,72.20
2023-04-12T20:00:33.179Z,77.60
2023-04-12T20:05:31.287Z,128.20
2023-04-12T20:10:30.601Z,126.70
2023-04-12T20:15:29.719Z,152.00
2023-04-12T20:20:29.817Z,202.40
2023-04-12T20:25:27.112Z,261.50
2023-04-12T20:30:27.461Z,163.20
2023-04-12T20:35:26.516Z,141.30
2023-04-12T20:40:27.575Z,106.80
2023-04-12T20:45:28.257Z,171.00
2023-04-12T20:50:24.986Z,157.20
2023-04-12T20:55:24.630Z,260.50
2023-04-12T21:00:22.909Z,125.50
2023-04-12T21:05:23.814Z,138.30
2023-04-12T21:10:22.127Z,201.20
2023-04-12T21:15:20.359Z,75.10
2023-04-12T21:20:21.659Z,100.30
2023-04-12T21:25:20.902Z,139.40
2023-04-12T21:30:21.184Z,128.40
2023-04-12T21:35:17.415Z,52.70
2023-04-12T21:40:16.679Z,82.40
2023-04-12T21:45:16.967Z,119.00
2023-04-12T21:50:15.245Z,73.90
2023-04-12T21:55:14.523Z,91.50
2023-04-12T22:00:14.835Z,166.70
2023-04-12T22:05:15.130Z,104.30
2023-04-12T22:10:12.584Z,108.60
2023-04-12T22:15:14.690Z,92.30
2023-04-12T22:20:13.102Z,76.50
2023-04-12T22:25:10.249Z,143.10
2023-04-12T22:30:09.555Z,128.90
2023-04-12T22:35:09.378Z,111.10
2023-04-12T22:40:07.218Z,97.00
2023-04-12T22:45:07.506Z,155.70
2023-04-12T22:50:06.807Z,137.70
2023-04-12T22:55:06.216Z,134.10
2023-04-12T23:00:04.225Z,126.60
2023-04-12T23:05:03.615Z,122.30
2023-04-12T23:10:03.793Z,119.40
2023-04-12T23:15:01.925Z,108.80
2023-04-12T23:20:02.393Z,104.80
2023-04-12T23:25:02.510Z,100.60
2023-04-12T23:29:59.775Z,93.70
2023-04-12T23:34:59.975Z,89.10
2023-04-12T23:39:59.267Z,83.70
2023-04-12T23:44:58.329Z,82.30
2023-04-12T23:49:58.082Z,78.10
2023-04-12T23:54:56.871Z,72.90
2023-04-12T23:59:55.848Z,69.50
